Time;durP1;ratioP1;P1;durP2;ratioP2;P2;SDS_P1;SDS_P2;PMS_P1;PMS_P2;Temp;Humidity;BMP_temperature;BMP_pressure;BME280_temperature;BME280_humidity;BME280_pressure;Samples;Min_cycle;Max_cycle;Signal;HPM_P1;HPM_P2
2022/09/14 00:01:47;;;;;;;7.97;2.40;;;;;;;17.78;100.00;100753.97;5283917;28;20028;-69
2022/09/14 00:04:19;;;;;;;8.00;2.50;;;;;;;17.75;100.00;100736.59;5283625;28;20039;-69
2022/09/14 00:06:50;;;;;;;6.75;2.30;;;;;;;17.70;100.00;100742.41;5283089;28;20053;-69
2022/09/14 00:09:23;;;;;;;6.38;2.30;;;;;;;17.68;100.00;100735.63;5289566;28;20017;-69
2022/09/14 00:11:55;;;;;;;;;;;;;;;18.22;100.00;100735.47;5293249;28;20036;-69
2022/09/14 00:14:26;;;;;;;5.05;2.20;;;;;;;17.50;100.00;100733.28;5287642;28;20199;-69
2022/09/14 00:16:57;;;;;;;12.13;2.50;;;;;;;17.54;100.00;100739.91;5288016;28;20024;-69
2022/09/14 00:19:28;;;;;;;7.55;2.42;;;;;;;17.51;100.00;100738.44;5288164;28;20029;-69
2022/09/14 00:22:00;;;;;;;7.47;1.98;;;;;;;17.43;100.00;100740.34;5287128;28;20020;-69
2022/09/14 00:24:33;;;;;;;9.90;2.80;;;;;;;17.35;100.00;100741.22;5289041;28;20020;-69
2022/09/14 00:27:05;;;;;;;8.40;3.03;;;;;;;17.25;100.00;100737.97;5289336;28;20035;-69
2022/09/14 00:29:36;;;;;;;7.90;2.40;;;;;;;17.19;100.00;100739.47;5286104;28;20027;-69
2022/09/14 00:32:07;;;;;;;6.00;2.10;;;;;;;17.27;100.00;100738.59;5289417;28;20028;-69
2022/09/14 00:34:38;;;;;;;9.27;2.40;;;;;;;17.18;100.00;100737.84;5277215;28;20250;-69
2022/09/14 00:37:11;;;;;;;8.52;2.25;;;;;;;17.16;100.00;100731.06;5287930;28;20134;-70
2022/09/14 00:39:42;;;;;;;9.43;2.63;;;;;;;17.15;100.00;100722.31;5286048;28;20063;-70
2022/09/14 00:42:18;;;;;;;7.35;2.33;;;;;;;17.21;100.00;100724.25;5286961;28;20115;-69
2022/09/14 00:44:49;;;;;;;6.82;2.30;;;;;;;17.09;100.00;100717.72;5287386;28;20025;-70
2022/09/14 00:47:20;;;;;;;6.93;2.20;;;;;;;17.12;100.00;100716.53;5288362;28;20028;-70
2022/09/14 00:49:52;;;;;;;4.18;2.05;;;;;;;17.11;100.00;100717.53;5287358;28;20423;-70
2022/09/14 00:52:27;;;;;;;6.95;2.10;;;;;;;17.06;100.00;100709.31;5286519;28;20021;-70
2022/09/14 00:55:02;;;;;;;5.68;2.25;;;;;;;17.06;100.00;100702.19;5285412;28;20028;-70
2022/09/14 00:57:37;;;;;;;4.82;2.22;;;;;;;17.06;100.00;100699.56;5289122;28;20032;-70
2022/09/14 01:00:10;;;;;;;5.97;2.17;;;;;;;17.01;100.00;100696.63;5286457;28;20025;-70
2022/09/14 01:02:42;;;;;;;8.35;2.22;;;;;;;16.97;100.00;100684.72;5286148;28;20056;-70
2022/09/14 01:05:14;;;;;;;7.13;2.53;;;;;;;17.10;100.00;100676.19;5289443;28;20467;-70
2022/09/14 01:08:01;;;;;;;7.32;2.47;;;;;;;17.17;100.00;100682.44;5286336;28;20090;-70
2022/09/14 01:10:53;;;;;;;5.47;2.15;;;;;;;17.06;100.00;100675.72;5287396;28;20032;-70
2022/09/14 01:13:57;;;;;;;5.72;2.63;;;;;;;17.31;100.00;100668.41;5286044;28;20421;-70
2022/09/14 01:16:43;;;;;;;7.18;3.38;;;;;;;17.09;100.00;100662.16;5288040;28;20081;-70
2022/09/14 01:19:34;;;;;;;5.88;2.88;;;;;;;17.24;100.00;100659.56;5287612;28;20139;-70
2022/09/14 01:22:13;;;;;;;4.20;2.20;;;;;;;17.05;100.00;100665.31;5289181;28;20210;-69
2022/09/14 01:24:50;;;;;;;7.90;2.78;;;;;;;17.11;100.00;100678.66;5288894;28;20016;-69
2022/09/14 01:27:40;;;;;;;6.07;2.75;;;;;;;17.12;100.00;100675.03;5286520;28;20028;-69
2022/09/14 01:30:17;;;;;;;7.32;2.42;;;;;;;16.88;100.00;100680.47;5287154;28;20378;-70
2022/09/14 01:33:08;;;;;;;7.25;2.90;;;;;;;17.05;100.00;100676.75;5288060;28;20022;-70
2022/09/14 01:35:46;;;;;;;7.55;2.63;;;;;;;16.90;100.00;100676.66;5285941;28;20032;-70
2022/09/14 01:38:26;;;;;;;9.07;2.90;;;;;;;16.80;100.00;100678.72;5285982;28;20047;-70
2022/09/14 01:41:01;;;;;;;5.80;2.50;;;;;;;16.84;100.00;100673.88;5285837;28;20060;-70
2022/09/14 01:43:36;;;;;;;5.88;2.20;;;;;;;16.75;100.00;100673.94;5282424;28;20498;-70
2022/09/14 01:46:16;;;;;;;7.63;1.98;;;;;;;16.90;100.00;100670.56;5286795;28;20032;-70
2022/09/14 01:48:54;;;;;;;7.30;2.30;;;;;;;16.90;100.00;100665.25;5284096;28;20032;-70
2022/09/14 01:51:35;;;;;;;7.35;2.20;;;;;;;16.80;100.00;100648.78;5287353;28;20028;-70
2022/09/14 01:54:12;;;;;;;5.10;2.50;;;;;;;16.72;100.00;100668.16;5283179;28;20508;-70
2022/09/14 01:56:52;;;;;;;7.00;2.20;;;;;;;16.74;100.00;100661.72;5289774;28;20036;-70
2022/09/14 01:59:29;;;;;;;6.30;2.10;;;;;;;16.69;100.00;100657.91;5286344;28;20040;-70
2022/09/14 02:02:16;;;;;;;8.23;2.30;;;;;;;16.57;100.00;100652.19;5283426;28;20029;-70
2022/09/14 02:05:02;;;;;;;6.65;2.40;;;;;;;16.75;100.00;100654.59;5283021;28;20090;-70
2022/09/14 02:07:35;;;;;;;8.95;2.20;;;;;;;16.48;100.00;100653.25;5289246;28;20420;-69
2022/09/14 02:10:11;;;;;;;7.43;2.47;;;;;;;16.50;100.00;100656.53;5284468;28;20664;-69
2022/09/14 02:12:43;;;;;;;8.40;2.38;;;;;;;16.49;100.00;100652.25;5287143;28;20036;-69
2022/09/14 02:15:15;;;;;;;8.35;2.70;;;;;;;16.48;100.00;100658.53;5270867;28;20141;-69
2022/09/14 02:17:47;;;;;;;5.55;2.20;;;;;;;16.42;100.00;100648.63;5284734;28;20032;-69
2022/09/14 02:20:30;;;;;;;4.18;2.10;;;;;;;16.56;100.00;100653.19;5286357;28;20024;-69
2022/09/14 02:23:02;;;;;;;8.52;2.33;;;;;;;16.46;100.00;100652.59;5289806;28;20055;-69
2022/09/14 02:25:35;;;;;;;6.60;2.13;;;;;;;16.43;100.00;100652.94;5280021;28;20035;-69
2022/09/14 02:28:07;;;;;;;4.72;1.83;;;;;;;16.44;100.00;100657.22;5287394;28;20064;-69
2022/09/14 02:30:51;;;;;;;6.18;2.13;;;;;;;16.52;100.00;100657.19;5283041;28;20042;-69
2022/09/14 02:33:50;;;;;;;5.88;1.90;;;;;;;16.50;100.00;100659.16;5282205;28;20055;-69
2022/09/14 02:36:34;;;;;;;6.70;1.90;;;;;;;16.52;100.00;100657.19;5286159;28;20039;-69
2022/09/14 02:39:24;;;;;;;6.90;2.42;;;;;;;16.39;100.00;100662.19;5285509;28;20016;-69
2022/09/14 02:41:58;;;;;;;7.90;2.75;;;;;;;16.37;100.00;100664.22;5285301;28;20658;-69
2022/09/14 02:44:46;;;;;;;6.80;2.30;;;;;;;16.46;100.00;100655.22;5284439;28;20480;-69
2022/09/14 02:47:40;;;;;;;3.97;1.98;;;;;;;16.44;100.00;100651.91;5285235;28;20392;-69
2022/09/14 02:50:22;;;;;;;7.28;2.42;;;;;;;16.47;100.00;100647.09;5240672;28;20131;-69
2022/09/14 02:53:16;;;;;;;4.43;2.00;;;;;;;16.72;100.00;100652.28;5282260;28;20085;-69
2022/09/14 02:55:53;;;;;;;8.15;2.58;;;;;;;16.47;100.00;100652.41;5268761;28;20051;-69
2022/09/14 02:58:33;;;;;;;6.30;2.25;;;;;;;16.47;100.00;100636.53;5268919;28;20066;-69
2022/09/14 03:01:07;;;;;;;5.03;2.05;;;;;;;16.39;100.00;100641.03;5265048;28;20480;-69
2022/09/14 03:03:39;;;;;;;6.95;2.63;;;;;;;16.38;100.00;100639.41;5287292;28;20032;-69
2022/09/14 03:06:10;;;;;;;9.27;2.90;;;;;;;16.34;100.00;100638.09;5285172;28;20503;-69
2022/09/14 03:08:42;;;;;;;8.30;2.35;;;;;;;16.35;100.00;100631.81;5286952;28;20413;-69
2022/09/14 03:11:14;;;;;;;13.40;3.13;;;;;;;16.38;100.00;100636.75;5288133;28;20070;-69
2022/09/14 03:13:45;;;;;;;10.15;2.28;;;;;;;16.37;100.00;100625.38;5284443;28;20036;-69
2022/09/14 03:16:18;;;;;;;6.25;2.15;;;;;;;16.38;100.00;100631.47;5285384;28;20035;-69
2022/09/14 03:18:49;;;;;;;7.65;2.33;;;;;;;16.35;100.00;100624.69;5286094;28;20043;-69
2022/09/14 03:21:20;;;;;;;7.15;2.17;;;;;;;16.35;100.00;100626.53;5286833;28;20028;-69
2022/09/14 03:23:54;;;;;;;7.32;2.20;;;;;;;16.26;100.00;100625.75;5281006;28;20025;-69
2022/09/14 03:26:26;;;;;;;6.75;1.88;;;;;;;16.29;100.00;100622.78;5283602;28;20031;-69
2022/09/14 03:28:58;;;;;;;5.80;2.58;;;;;;;16.29;100.00;100620.13;5279177;28;20504;-69
2022/09/14 03:31:29;;;;;;;6.15;2.35;;;;;;;16.25;100.00;100606.44;5280874;28;20032;-69
2022/09/14 03:34:01;;;;;;;6.38;2.50;;;;;;;16.34;100.00;100615.13;5282949;28;20024;-69
2022/09/14 03:36:32;;;;;;;6.60;2.15;;;;;;;16.34;100.00;100607.19;5282923;28;20089;-69
2022/09/14 03:39:04;;;;;;;6.10;2.17;;;;;;;16.28;100.00;100611.34;5286859;28;20028;-69
2022/09/14 03:41:35;;;;;;;6.38;2.35;;;;;;;16.27;100.00;100607.06;5282514;28;20054;-69
2022/09/14 03:44:08;;;;;;;7.20;2.50;;;;;;;16.29;100.00;100597.16;5281649;28;20381;-69
2022/09/14 03:46:39;;;;;;;6.68;2.20;;;;;;;16.22;100.00;100588.25;5283020;28;20481;-69
2022/09/14 03:49:11;;;;;;;6.50;2.38;;;;;;;16.14;100.00;100590.09;5282710;28;20031;-69
2022/09/14 03:51:42;;;;;;;8.48;2.30;;;;;;;16.23;100.00;100594.38;5284548;28;20043;-69
2022/09/14 03:54:13;;;;;;;6.40;2.25;;;;;;;16.14;100.00;100590.97;5289594;28;20036;-69
2022/09/14 03:56:45;;;;;;;8.10;2.20;;;;;;;16.14;100.00;100596.25;5261432;28;20162;-69
2022/09/14 03:59:16;;;;;;;9.93;2.33;;;;;;;16.13;100.00;100588.47;5280659;28;20032;-69
2022/09/14 04:01:47;;;;;;;7.65;2.35;;;;;;;16.16;100.00;100583.66;5279737;28;20314;-69
2022/09/14 04:04:19;;;;;;;9.98;2.42;;;;;;;16.05;100.00;100589.31;5285509;28;20496;-69
2022/09/14 04:06:50;;;;;;;5.25;2.00;;;;;;;16.09;100.00;100585.34;5280223;28;20528;-69
2022/09/14 04:09:21;;;;;;;6.15;2.03;;;;;;;16.06;100.00;100572.47;5283511;28;20016;-69
2022/09/14 04:11:52;;;;;;;9.88;1.90;;;;;;;16.02;100.00;100576.44;5280763;28;20123;-69
2022/09/14 04:14:24;;;;;;;7.85;2.38;;;;;;;15.97;100.00;100582.25;5287356;28;20116;-69
2022/09/14 04:16:55;;;;;;;7.25;2.45;;;;;;;15.97;100.00;100584.91;5278388;28;22355;-69
2022/09/14 04:19:27;;;;;;;8.45;2.40;;;;;;;15.98;100.00;100583.06;5277006;28;20024;-69
2022/09/14 04:21:58;;;;;;;5.50;1.65;;;;;;;15.97;100.00;100584.09;5283039;28;20473;-69
2022/09/14 04:24:29;;;;;;;6.40;2.35;;;;;;;15.98;100.00;100581.25;5284599;28;20028;-69
2022/09/14 04:27:00;;;;;;;6.70;2.00;;;;;;;15.95;100.00;100576.34;5284726;28;20023;-69
2022/09/14 04:29:32;;;;;;;7.07;1.75;;;;;;;15.98;100.00;100577.78;5286049;28;20047;-69
2022/09/14 04:32:03;;;;;;;4.95;1.58;;;;;;;15.96;100.00;100574.50;5288320;28;20032;-69
2022/09/14 04:34:34;;;;;;;4.05;1.70;;;;;;;15.97;100.00;100570.88;5286829;28;20829;-69
2022/09/14 04:37:06;;;;;;;10.07;2.17;;;;;;;16.03;100.00;100571.00;5289090;28;20432;-69
2022/09/14 04:39:37;;;;;;;7.32;2.15;;;;;;;15.89;100.00;100561.16;5281322;28;20103;-69
2022/09/14 04:42:09;;;;;;;9.43;2.13;;;;;;;15.93;100.00;100572.22;5282332;28;20512;-69
2022/09/14 04:44:40;;;;;;;11.88;3.00;;;;;;;15.96;100.00;100562.13;5287831;28;20393;-69
2022/09/14 04:47:11;;;;;;;5.40;1.75;;;;;;;15.95;100.00;100563.13;5288070;28;20058;-69
2022/09/14 04:49:43;;;;;;;7.75;2.53;;;;;;;15.87;100.00;100557.84;5284450;28;20036;-69
2022/09/14 04:52:14;;;;;;;6.05;2.38;;;;;;;15.91;100.00;100563.63;5283120;28;20028;-69
2022/09/14 04:54:45;;;;;;;7.35;2.08;;;;;;;15.86;100.00;100561.50;5286329;28;20024;-69
2022/09/14 04:57:16;;;;;;;6.45;1.83;;;;;;;15.82;100.00;100549.63;5289589;28;20024;-69
2022/09/14 04:59:48;;;;;;;4.68;1.83;;;;;;;15.89;100.00;100547.13;5290492;28;20040;-69
2022/09/14 05:02:19;;;;;;;5.95;2.13;;;;;;;15.88;100.00;100550.78;5287130;28;20063;-69
2022/09/14 05:04:50;;;;;;;5.35;1.85;;;;;;;15.89;100.00;100547.94;5287112;28;20031;-69
2022/09/14 05:07:21;;;;;;;7.63;2.03;;;;;;;15.84;100.00;100546.84;5288574;28;20044;-69
2022/09/14 05:09:53;;;;;;;6.78;1.90;;;;;;;15.84;100.00;100542.38;5281663;28;20408;-69
2022/09/14 05:12:24;;;;;;;4.97;1.80;;;;;;;15.79;100.00;100531.47;5284812;28;20470;-69
2022/09/14 05:14:55;;;;;;;8.95;2.58;;;;;;;15.76;100.00;100537.94;5287922;28;20055;-69
2022/09/14 05:17:27;;;;;;;6.60;1.90;;;;;;;15.74;100.00;100537.28;5283175;28;20020;-69
2022/09/14 05:19:58;;;;;;;6.85;1.80;;;;;;;15.76;100.00;100535.31;5282912;28;20024;-69
2022/09/14 05:22:30;;;;;;;8.32;1.70;;;;;;;15.57;100.00;100528.56;5284819;28;20090;-69
2022/09/14 05:25:02;;;;;;;5.93;1.73;;;;;;;15.72;100.00;100536.66;5285759;28;20025;-69
2022/09/14 05:27:33;;;;;;;7.25;1.77;;;;;;;15.70;100.00;100546.53;5284601;28;20055;-69
2022/09/14 05:30:05;;;;;;;7.57;1.92;;;;;;;15.79;100.00;100548.16;5283654;28;20035;-69
2022/09/14 05:32:36;;;;;;;8.65;1.95;;;;;;;15.79;100.00;100553.44;5285465;28;20122;-69
2022/09/14 05:35:08;;;;;;;8.65;2.25;;;;;;;15.85;100.00;100548.47;5284284;28;20031;-69
2022/09/14 05:37:39;;;;;;;6.78;2.20;;;;;;;15.84;100.00;100546.84;5285679;28;20039;-69
2022/09/14 05:40:10;;;;;;;5.32;2.03;;;;;;;15.86;100.00;100543.00;5283965;28;20065;-69
2022/09/14 05:42:42;;;;;;;5.85;2.30;;;;;;;15.87;100.00;100543.81;5285668;28;20065;-69
2022/09/14 05:45:13;;;;;;;7.05;2.00;;;;;;;15.90;100.00;100546.13;5288122;28;20111;-69
2022/09/14 05:47:44;;;;;;;7.85;2.38;;;;;;;15.90;100.00;100557.53;5286755;28;20028;-69
2022/09/14 05:50:15;;;;;;;9.07;2.25;;;;;;;15.96;100.00;100559.47;5287730;28;20066;-69
2022/09/14 05:52:47;;;;;;;9.27;2.58;;;;;;;15.95;100.00;100560.50;5284353;28;20039;-69
2022/09/14 05:55:19;;;;;;;8.60;2.30;;;;;;;15.96;100.00;100556.03;5286888;28;20060;-69
2022/09/14 05:57:50;;;;;;;6.22;1.90;;;;;;;15.91;100.00;100551.25;5286992;28;20028;-69
2022/09/14 06:00:22;;;;;;;6.43;2.55;;;;;;;15.94;100.00;100555.34;5265278;28;20024;-70
2022/09/14 06:02:53;;;;;;;5.82;2.53;;;;;;;15.91;100.00;100551.25;5281719;28;20062;-69
2022/09/14 06:05:25;;;;;;;8.40;2.65;;;;;;;15.91;100.00;100564.47;5288790;28;20095;-69
2022/09/14 06:07:56;;;;;;;8.18;1.88;;;;;;;15.93;100.00;100559.00;5273054;28;20094;-69
2022/09/14 06:10:27;;;;;;;7.38;2.40;;;;;;;15.91;100.00;100564.47;5284276;28;20039;-69
2022/09/14 06:12:59;;;;;;;5.85;2.47;;;;;;;15.84;100.00;100558.22;5283228;28;20020;-69
2022/09/14 06:15:32;;;;;;;5.82;2.10;;;;;;;15.95;100.00;100571.06;5283165;28;20031;-69
2022/09/14 06:18:04;;;;;;;5.68;2.60;;;;;;;15.94;100.00;100574.66;5278779;28;20433;-70
2022/09/14 06:20:35;;;;;;;7.70;3.00;;;;;;;15.94;100.00;100577.31;5285734;28;20184;-69
2022/09/14 06:23:06;;;;;;;9.57;2.90;;;;;;;15.99;100.00;100576.81;5286404;28;20028;-68
2022/09/14 06:25:37;;;;;;;4.93;2.70;;;;;;;16.02;100.00;100577.31;5285687;28;20066;-68
2022/09/14 06:28:09;;;;;;;7.40;2.63;;;;;;;15.98;100.00;100575.97;5283425;28;20281;-68
2022/09/14 06:30:43;;;;;;;9.23;2.42;;;;;;;15.98;100.00;100570.69;5283273;28;20028;-68
2022/09/14 06:33:15;;;;;;;5.82;2.38;;;;;;;15.92;100.00;100570.56;5288595;28;20036;-68
2022/09/14 06:36:11;;;;;;;6.47;2.83;;;;;;;16.13;100.00;100572.59;5283854;28;20072;-68
2022/09/14 06:38:43;;;;;;;7.80;2.47;;;;;;;15.84;100.00;100554.75;5277888;28;20389;-68
2022/09/14 06:41:17;;;;;;;7.38;2.63;;;;;;;15.90;100.00;100564.63;5286248;28;20032;-68
2022/09/14 06:43:49;;;;;;;8.57;2.67;;;;;;;15.90;100.00;100559.34;5285270;28;20032;-68
2022/09/14 06:46:23;;;;;;;8.15;2.38;;;;;;;15.79;100.00;100552.59;5276749;28;20113;-69
2022/09/14 06:48:58;;;;;;;5.82;2.15;;;;;;;15.78;100.00;100551.78;5286347;28;20031;-69
2022/09/14 06:51:34;;;;;;;3.55;2.40;;;;;;;15.84;100.00;100552.13;5284220;28;20028;-69
2022/09/14 06:54:06;;;;;;;6.25;2.42;;;;;;;15.70;100.00;100551.81;5284501;28;20024;-68
2022/09/14 06:56:39;;;;;;;4.95;2.30;;;;;;;15.74;100.00;100544.38;5278311;28;20012;-68
2022/09/14 06:59:14;;;;;;;6.07;2.38;;;;;;;15.77;100.00;100542.22;5288807;28;20527;-68
2022/09/14 07:01:45;;;;;;;6.40;2.80;;;;;;;15.66;100.00;100533.84;5283021;28;20036;-69
2022/09/14 07:04:17;;;;;;;7.93;2.67;;;;;;;15.72;100.00;100538.44;5285384;28;20095;-69
2022/09/14 07:06:49;;;;;;;4.72;2.60;;;;;;;15.66;100.00;100528.56;5280270;28;20052;-69
2022/09/14 07:09:20;;;;;;;5.00;2.20;;;;;;;15.66;100.00;100539.97;5283310;28;20035;-69
2022/09/14 07:11:53;;;;;;;5.97;2.33;;;;;;;15.72;100.00;100531.34;5280341;28;20649;-69
2022/09/14 07:14:24;;;;;;;6.07;2.28;;;;;;;15.63;100.00;100529.69;5283189;28;20032;-68
2022/09/14 07:16:55;;;;;;;6.88;2.40;;;;;;;15.65;100.00;100524.25;5282788;28;20408;-68
2022/09/14 07:19:27;;;;;;;7.30;2.55;;;;;;;15.68;100.00;100535.34;5281696;28;20380;-69
2022/09/14 07:22:00;;;;;;;6.28;2.40;;;;;;;15.71;100.00;100531.50;5283217;28;20060;-69
2022/09/14 07:24:31;;;;;;;5.53;2.28;;;;;;;15.74;100.00;100521.44;5282564;28;20046;-68
2022/09/14 07:27:03;;;;;;;6.45;2.50;;;;;;;15.72;100.00;100525.22;5273163;28;20427;-69
2022/09/14 07:29:35;;;;;;;6.35;2.38;;;;;;;15.70;100.00;100522.78;5284206;28;20036;-69
2022/09/14 07:32:07;;;;;;;6.30;2.25;;;;;;;15.74;100.00;100525.91;5280484;28;20414;-69
2022/09/14 07:34:38;;;;;;;6.82;2.60;;;;;;;15.75;100.00;100532.81;5286305;28;20629;-69
2022/09/14 07:37:09;;;;;;;6.25;2.53;;;;;;;15.69;100.00;100536.16;5285276;28;20038;-69
2022/09/14 07:39:40;;;;;;;6.38;2.70;;;;;;;15.75;100.00;100530.19;5283573;28;20031;-69
2022/09/14 07:42:12;;;;;;;5.53;2.80;;;;;;;15.66;100.00;100529.41;5279916;28;20039;-69
2022/09/14 07:44:43;;;;;;;4.18;2.47;;;;;;;15.71;100.00;100527.06;5277613;28;20037;-69
2022/09/14 07:47:14;;;;;;;6.07;2.88;;;;;;;15.74;100.00;100524.06;5277990;28;20024;-69
2022/09/14 07:49:46;;;;;;;6.13;2.50;;;;;;;15.82;100.00;100524.03;5285804;28;20024;-69
2022/09/14 07:52:17;;;;;;;5.43;2.35;;;;;;;15.81;100.00;100524.22;5262492;28;20158;-69
2022/09/14 07:54:48;;;;;;;5.07;2.50;;;;;;;15.78;100.00;100524.56;5277600;28;20020;-69
2022/09/14 07:57:19;;;;;;;4.93;2.40;;;;;;;15.79;100.00;100524.38;5278239;28;20413;-69
2022/09/14 07:59:51;;;;;;;4.38;2.40;;;;;;;15.78;100.00;100528.00;5280488;28;20032;-69
2022/09/14 08:02:23;;;;;;;9.30;3.08;;;;;;;15.84;100.00;100521.25;5281728;28;20020;-69
2022/09/14 08:04:54;;;;;;;5.28;2.75;;;;;;;15.85;100.00;100516.78;5279918;28;20024;-69
2022/09/14 08:07:26;;;;;;;6.13;2.53;;;;;;;15.78;100.00;100509.53;5281879;28;20106;-70
2022/09/14 08:09:57;;;;;;;5.55;2.60;;;;;;;15.81;100.00;100524.22;5282724;28;20044;-69
2022/09/14 08:12:28;;;;;;;5.28;3.40;;;;;;;15.78;100.00;100512.16;5284941;28;20111;-69
2022/09/14 08:14:59;;;;;;;4.97;3.25;;;;;;;15.88;100.00;100514.63;5278241;28;20078;-69
2022/09/14 08:17:31;;;;;;;6.72;2.40;;;;;;;15.95;100.00;100522.69;5282708;28;20090;-70
2022/09/14 08:20:02;;;;;;;7.25;3.08;;;;;;;15.94;100.00;100521.00;5282374;28;20029;-69
2022/09/14 08:22:34;;;;;;;12.18;3.25;;;;;;;15.98;100.00;100522.31;5265796;28;20082;-69
2022/09/14 08:25:05;;;;;;;5.97;2.87;;;;;;;15.97;100.00;100518.84;5282637;28;20539;-70
2022/09/14 08:27:37;;;;;;;6.18;3.00;;;;;;;15.95;100.00;100520.84;5283837;28;20282;-69
2022/09/14 08:30:11;;;;;;;5.95;2.95;;;;;;;15.93;100.00;100522.84;5285156;28;20035;-69
2022/09/14 08:32:44;;;;;;;4.90;2.80;;;;;;;15.97;100.00;100515.38;5289909;28;20035;-69
2022/09/14 08:35:15;;;;;;;5.22;2.78;;;;;;;16.13;100.00;100517.09;5282415;28;20052;-70
2022/09/14 08:37:46;;;;;;;5.60;2.50;;;;;;;16.06;100.00;100527.53;5283221;28;20070;-69
2022/09/14 08:40:18;;;;;;;5.50;3.40;;;;;;;16.14;100.00;100524.88;5284587;28;20035;-69
2022/09/14 08:42:51;;;;;;;5.57;3.22;;;;;;;16.11;100.00;100535.78;5285978;28;20027;-69
2022/09/14 08:45:23;;;;;;;5.72;3.38;;;;;;;16.15;100.00;100530.97;5287181;28;20104;-69
2022/09/14 08:47:56;;;;;;;5.47;3.22;;;;;;;16.16;100.00;100535.28;5288365;28;20028;-69
2022/09/14 08:50:29;;;;;;;5.50;3.47;;;;;;;16.15;100.00;100530.97;5286601;28;20024;-69
2022/09/14 08:53:00;;;;;;;8.95;3.85;;;;;;;16.19;100.00;100541.03;5287283;28;20024;-69
2022/09/14 08:55:41;;;;;;;8.45;4.63;;;;;;;16.38;100.00;100538.94;5282750;28;20029;-69
2022/09/14 08:58:29;;;;;;;9.05;3.95;;;;;;;16.45;100.00;100537.25;5283028;28;20085;-69
2022/09/14 09:01:20;;;;;;;7.55;4.20;;;;;;;16.42;100.00;100537.59;5284946;28;20028;-69
2022/09/14 09:04:28;;;;;;;8.18;4.90;;;;;;;16.57;100.00;100532.38;5287561;28;20101;-69
2022/09/14 09:07:09;;;;;;;7.75;4.28;;;;;;;16.41;100.00;100533.31;5286856;28;20109;-69
2022/09/14 09:09:46;;;;;;;8.95;5.20;;;;;;;16.39;100.00;100532.66;5283623;28;20035;-69
2022/09/14 09:12:36;;;;;;;8.10;5.43;;;;;;;16.53;100.00;100540.66;5286133;28;20087;-69
2022/09/14 09:15:31;;;;;;;9.18;5.05;;;;;;;16.57;100.00;100530.53;5287250;28;20043;-69
2022/09/14 09:18:17;;;;;;;10.75;5.70;;;;;;;16.49;100.00;100525.31;5265842;28;20025;-69
2022/09/14 09:21:00;;;;;;;6.93;5.13;;;;;;;16.54;100.00;100528.25;5282336;28;20028;-69
2022/09/14 09:23:32;;;;;;;9.00;5.68;;;;;;;16.40;100.00;100521.06;5286086;28;20107;-69
2022/09/14 09:26:24;;;;;;;8.53;6.80;;;;;;;16.71;100.00;100521.03;5284942;28;20028;-69
2022/09/14 09:28:57;;;;;;;12.55;7.22;;;;;;;16.42;100.00;100524.38;5286183;28;20028;-69
2022/09/14 09:31:36;;;;;;;7.90;6.03;;;;;;;16.54;100.00;100526.41;5288102;28;20544;-69
2022/09/14 09:34:13;;;;;;;8.25;5.68;;;;;;;16.47;100.00;100532.59;5277307;28;20032;-69
2022/09/14 09:36:48;;;;;;;7.80;6.38;;;;;;;16.54;100.00;100521.13;5285686;28;20082;-69
2022/09/14 09:39:20;;;;;;;8.38;5.80;;;;;;;16.46;100.00;100515.09;5281298;28;20322;-69
2022/09/14 09:42:10;;;;;;;8.15;6.18;;;;;;;16.64;100.00;100520.91;5270034;28;20389;-69
2022/09/14 09:44:58;;;;;;;9.02;6.13;;;;;;;16.69;100.00;100525.66;5282198;28;20032;-69
2022/09/14 09:47:36;;;;;;;11.48;6.38;;;;;;;16.55;100.00;100521.94;5281770;28;20064;-69
2022/09/14 09:50:13;;;;;;;9.07;6.40;;;;;;;16.68;100.00;100530.13;5278346;28;20028;-69
2022/09/14 09:52:57;;;;;;;11.93;6.72;;;;;;;16.72;100.00;100523.47;5286787;28;20089;-69
2022/09/14 09:55:36;;;;;;;10.68;6.50;;;;;;;16.72;100.00;100533.22;5280974;28;20032;-69
2022/09/14 09:58:36;;;;;;;8.98;6.55;;;;;;;16.78;100.00;100528.09;5280763;28;20028;-69
2022/09/14 10:01:27;;;;;;;9.00;5.57;;;;;;;16.82;100.00;100519.78;5285913;28;20036;-69
2022/09/14 10:04:07;;;;;;;9.40;6.97;;;;;;;16.78;100.00;100522.81;5289154;28;20119;-69
2022/09/14 10:06:41;;;;;;;10.45;6.28;;;;;;;16.65;100.00;100524.38;5280842;28;20047;-69
2022/09/14 10:09:15;;;;;;;9.20;5.80;;;;;;;16.63;100.00;100527.19;5287590;28;20021;-69
2022/09/14 10:11:57;;;;;;;10.65;6.70;;;;;;;16.92;100.00;100526.47;5285476;28;20051;-69
2022/09/14 10:14:32;;;;;;;7.20;6.47;;;;;;;16.95;100.00;100527.94;5285043;28;20036;-71
2022/09/14 10:17:22;;;;;;;8.32;6.53;;;;;;;17.27;100.00;100529.44;5288575;28;20111;-69
2022/09/14 10:19:54;;;;;;;9.05;6.15;;;;;;;17.07;100.00;100521.22;5276139;28;20028;-69
2022/09/14 10:22:33;;;;;;;6.75;5.95;;;;;;;17.15;100.00;100525.59;5283818;28;20515;-69
2022/09/14 10:25:14;;;;;;;11.73;6.70;;;;;;;17.09;100.00;100531.63;5280935;28;20024;-69
2022/09/14 10:27:54;;;;;;;8.45;5.80;;;;;;;17.15;100.00;100521.13;5281447;28;20028;-69
2022/09/14 10:30:36;;;;;;;7.50;5.72;;;;;;;17.15;100.00;100536.19;5272829;28;20028;-70
2022/09/14 10:33:12;;;;;;;7.03;5.32;;;;;;;17.03;100.00;100528.69;5271473;28;20036;-70
2022/09/14 10:35:55;;;;;;;6.38;5.55;;;;;;;16.95;100.00;100525.28;5269325;28;20035;-70
2022/09/14 10:38:33;;;;;;;8.52;6.07;;;;;;;17.05;100.00;100522.38;5282772;28;20032;-71
2022/09/14 10:41:38;;;;;;;8.35;6.05;;;;;;;17.20;100.00;100518.78;5281921;28;20168;-71
2022/09/14 10:44:34;;;;;;;9.48;5.93;;;;;;;17.07;100.00;100518.56;5285737;28;20078;-71
2022/09/14 10:47:31;;;;;;;8.23;6.13;;;;;;;17.06;100.00;100516.94;5287056;28;20040;-71
2022/09/14 10:50:27;;;;;;;9.40;5.63;;;;;;;17.02;100.00;100516.47;5281078;28;20029;-71
2022/09/14 10:53:30;;;;;;;10.70;6.13;;;;;;;17.10;100.00;100518.19;5282964;28;20067;-70
2022/09/14 10:56:09;;;;;;;7.05;5.78;;;;;;;17.01;100.00;100525.41;5281011;28;20067;-70
2022/09/14 10:58:49;;;;;;;6.28;5.68;;;;;;;17.02;100.00;100523.59;5280659;28;20028;-70
2022/09/14 11:01:36;;;;;;;6.50;5.82;;;;;;;17.13;100.00;100527.63;5285562;28;20043;-70
2022/09/14 11:04:34;;;;;;;8.13;5.88;;;;;;;17.09;100.00;100521.03;5283343;28;20047;-69
2022/09/14 11:07:17;;;;;;;6.43;5.38;;;;;;;17.03;100.00;100502.22;5285788;28;20078;-69
2022/09/14 11:10:11;;;;;;;5.95;4.60;;;;;;;17.22;100.00;100511.44;5283535;28;20056;-70
2022/09/14 11:13:01;;;;;;;7.20;5.07;;;;;;;16.98;100.00;100509.88;5284326;28;20048;-70
2022/09/14 11:15:57;;;;;;;6.10;4.80;;;;;;;17.22;100.00;100495.56;5282072;28;20031;-70
2022/09/14 11:18:53;;;;;;;5.95;4.55;;;;;;;17.24;100.00;100498.88;5285156;28;20086;-70
2022/09/14 11:21:29;;;;;;;5.75;4.47;;;;;;;17.03;100.00;100506.69;5281866;28;20035;-70
2022/09/14 11:24:17;;;;;;;7.28;4.95;;;;;;;17.05;100.00;100499.41;5284356;28;20031;-70
2022/09/14 11:27:30;;;;;;;7.28;4.30;;;;;;;17.27;100.00;100498.50;5282148;28;20115;-70
2022/09/14 11:30:12;;;;;;;6.60;4.25;;;;;;;17.09;100.00;100497.22;5256256;28;20369;-70
2022/09/14 11:33:00;;;;;;;5.10;3.93;;;;;;;17.05;100.00;100504.69;5281327;28;20020;-71
2022/09/14 11:35:44;;;;;;;6.05;4.25;;;;;;;17.05;100.00;100494.13;5277514;28;20487;-69
2022/09/14 11:38:33;;;;;;;4.82;4.22;;;;;;;17.15;100.00;100494.66;5285822;28;20023;-69
2022/09/14 11:41:18;;;;;;;5.10;3.60;;;;;;;17.06;100.00;100498.41;5281062;28;20058;-70
2022/09/14 11:44:15;;;;;;;5.97;3.25;;;;;;;16.97;100.00;100495.00;5277108;28;20045;-70
2022/09/14 11:46:59;;;;;;;6.28;3.55;;;;;;;17.00;100.00;100491.97;5277778;28;20024;-69
2022/09/14 11:50:09;;;;;;;5.22;3.22;;;;;;;17.07;100.00;100494.75;5281715;28;20107;-71
2022/09/14 11:52:40;;;;;;;6.57;2.80;;;;;;;16.75;100.00;100496.69;5281827;28;20028;-69
2022/09/14 11:55:17;;;;;;;4.75;2.75;;;;;;;16.79;100.00;100494.53;5277975;28;20408;-69
2022/09/14 11:57:48;;;;;;;9.73;2.38;;;;;;;16.63;100.00;100495.47;5279562;28;20032;-69
2022/09/14 12:00:22;;;;;;;4.53;1.88;;;;;;;16.66;100.00;100508.31;5281662;28;20025;-69